Time;durP1;ratioP1;P1;durP2;ratioP2;P2;SDS_P1;SDS_P2;PMS_P1;PMS_P2;Temp;Humidity;BMP_temperature;BMP_pressure;BME280_temperature;BME280_humidity;BME280_pressure;Samples;Min_cycle;Max_cycle;Signal;HPM_P1;HPM_P2
2022/11/24 00:01:28;;;;;;;11.93;2.60;;;;;;;;;;4990491;28;20065;-75
2022/11/24 00:04:02;;;;;;;16.23;2.33;;;;;;;;;;4988626;28;21583;-75
2022/11/24 00:06:28;;;;;;;16.77;2.33;;;;;;;;;;4985953;28;20455;-75
2022/11/24 00:08:54;;;;;;;18.00;1.45;;;;;;;;;;4981607;28;20113;-75
2022/11/24 00:11:22;;;;;;;22.17;2.33;;;;;;;;;;4982264;28;20165;-75
2022/11/24 00:13:48;;;;;;;17.55;2.08;;;;;;;;;;4980405;28;20096;-77
2022/11/24 00:16:24;;;;;;;11.88;1.73;;;;;;;;;;4978557;28;20438;-76
2022/11/24 00:18:51;;;;;;;17.10;2.40;;;;;;;;;;4989524;28;20038;-76
2022/11/24 00:21:18;;;;;;;13.43;1.95;;;;;;;;;;4979514;28;20027;-76
2022/11/24 00:23:43;;;;;;;20.50;3.35;;;;;;;;;;4978274;28;20097;-76
2022/11/24 00:26:11;;;;;;;29.60;3.33;;;;;;;;;;4973790;28;20503;-76
2022/11/24 00:28:37;;;;;;;27.08;3.35;;;;;;;;;;4981140;28;20034;-76
2022/11/24 00:31:04;;;;;;;13.13;2.50;;;;;;;;;;4990363;28;20049;-77
2022/11/24 00:33:30;;;;;;;20.88;2.20;;;;;;;;;;4985100;28;20113;-76
2022/11/24 00:35:59;;;;;;;24.95;2.10;;;;;;;;;;4982534;28;20119;-76
2022/11/24 00:38:25;;;;;;;15.73;2.13;;;;;;;;;;4984050;28;20066;-76
2022/11/24 00:40:51;;;;;;;19.15;1.48;;;;;;;;;;4983190;28;20063;-76
2022/11/24 00:43:17;;;;;;;13.13;1.88;;;;;;;;;;4990465;28;20043;-75
2022/11/24 00:45:43;;;;;;;16.95;2.70;;;;;;;;;;4978776;28;20114;-76
2022/11/24 00:48:08;;;;;;;15.25;2.25;;;;;;;;;;4988574;28;20133;-76
2022/11/24 00:50:34;;;;;;;17.45;2.47;;;;;;;;;;4992411;28;20031;-75
2022/11/24 00:52:59;;;;;;;23.20;2.35;;;;;;;;;;4984575;28;20475;-76
2022/11/24 00:55:25;;;;;;;13.32;1.55;;;;;;;;;;4989633;28;20085;-77
2022/11/24 00:57:50;;;;;;;22.50;1.95;;;;;;;;;;4987349;28;20030;-76
2022/11/24 01:00:16;;;;;;;17.48;1.60;;;;;;;;;;4991593;28;20478;-75
2022/11/24 01:02:42;;;;;;;17.67;1.98;;;;;;;;;;4995883;28;20045;-75
2022/11/24 01:05:07;;;;;;;13.38;1.83;;;;;;;;;;4991368;28;20387;-76
2022/11/24 01:07:33;;;;;;;22.20;2.03;;;;;;;;;;4981138;28;20043;-75
2022/11/24 01:09:58;;;;;;;20.98;2.20;;;;;;;;;;4985974;28;20031;-76
2022/11/24 01:12:24;;;;;;;22.27;1.95;;;;;;;;;;4982053;28;20042;-75
2022/11/24 01:14:49;;;;;;;26.15;1.98;;;;;;;;;;4988916;28;20045;-76
2022/11/24 01:17:14;;;;;;;16.35;1.83;;;;;;;;;;4989351;28;20183;-76
2022/11/24 01:19:40;;;;;;;14.93;2.05;;;;;;;;;;4991562;28;20470;-76
2022/11/24 01:22:05;;;;;;;24.15;1.92;;;;;;;;;;4983805;28;20057;-76
2022/11/24 01:24:31;;;;;;;22.85;1.90;;;;;;;;;;4987366;28;20038;-78
2022/11/24 01:26:56;;;;;;;13.52;1.23;;;;;;;;;;4968560;28;20026;-76
2022/11/24 01:29:21;;;;;;;25.20;1.55;;;;;;;;;;4982994;28;20042;-76
2022/11/24 01:31:47;;;;;;;16.63;2.10;;;;;;;;;;4990675;28;20046;-76
2022/11/24 01:34:12;;;;;;;30.35;2.15;;;;;;;;;;4987484;28;20390;-75
2022/11/24 01:36:38;;;;;;;10.80;1.40;;;;;;;;;;4982116;28;20039;-76
2022/11/24 01:39:03;;;;;;;24.27;1.92;;;;;;;;;;4988390;28;20045;-75
2022/11/24 01:41:29;;;;;;;20.85;2.38;;;;;;;;;;4988029;28;20122;-76
2022/11/24 01:43:55;;;;;;;23.90;2.08;;;;;;;;;;4991650;28;20039;-75
2022/11/24 01:46:42;;;;;;;29.73;2.70;;;;;;;;;;4984502;28;20043;-76
2022/11/24 01:49:08;;;;;;;24.90;2.40;;;;;;;;;;4984105;28;20092;-75
2022/11/24 01:51:35;;;;;;;27.92;1.92;;;;;;;;;;4989893;28;20120;-75
2022/11/24 01:54:39;;;;;;;24.35;2.10;;;;;;;;;;4984387;28;20035;-76
2022/11/24 01:57:13;;;;;;;22.55;2.33;;;;;;;;;;4977365;28;20609;-76
2022/11/24 01:59:39;;;;;;;13.85;1.92;;;;;;;;;;4988073;28;20061;-76
2022/11/24 02:02:04;;;;;;;28.70;3.15;;;;;;;;;;4990232;28;20486;-76
2022/11/24 02:04:32;;;;;;;22.65;2.47;;;;;;;;;;4986662;28;20084;-76
2022/11/24 02:06:59;;;;;;;30.50;2.83;;;;;;;;;;4976998;28;20026;-76
2022/11/24 02:09:36;;;;;;;25.85;1.88;;;;;;;;;;4985541;28;20558;-76
2022/11/24 02:12:02;;;;;;;8.50;1.60;;;;;;;;;;5009509;28;20113;-76
2022/11/24 02:14:27;;;;;;;26.50;2.05;;;;;;;;;;4981411;28;20061;-77
2022/11/24 02:16:53;;;;;;;23.63;2.55;;;;;;;;;;4987330;28;20379;-76
2022/11/24 02:19:33;;;;;;;22.60;2.67;;;;;;;;;;4979802;28;20035;-75
2022/11/24 02:21:59;;;;;;;31.33;2.97;;;;;;;;;;4990458;28;20039;-75
2022/11/24 02:24:33;;;;;;;17.88;1.60;;;;;;;;;;4991438;28;20030;-76
2022/11/24 02:26:59;;;;;;;22.42;1.83;;;;;;;;;;4988520;28;20049;-76
2022/11/24 02:29:24;;;;;;;35.72;3.13;;;;;;;;;;4980935;28;20023;-76
2022/11/24 02:31:59;;;;;;;31.33;2.88;;;;;;;;;;4991051;28;20113;-75
2022/11/24 02:34:24;;;;;;;20.95;2.60;;;;;;;;;;4981297;28;20039;-75
2022/11/24 02:36:50;;;;;;;31.67;2.60;;;;;;;;;;4981411;28;20041;-76
2022/11/24 02:39:15;;;;;;;20.67;2.67;;;;;;;;;;4977299;28;20030;-75
2022/11/24 02:41:49;;;;;;;28.52;2.92;;;;;;;;;;4990467;28;20482;-75
2022/11/24 02:44:16;;;;;;;30.40;2.45;;;;;;;;;;4987345;28;20080;-75
2022/11/24 02:46:42;;;;;;;35.45;2.55;;;;;;;;;;4988730;28;20064;-76
2022/11/24 02:49:07;;;;;;;39.67;3.10;;;;;;;;;;4983195;28;20113;-76
2022/11/24 02:51:33;;;;;;;15.98;2.20;;;;;;;;;;4985976;28;20067;-76
2022/11/24 02:53:59;;;;;;;26.10;2.92;;;;;;;;;;4987598;28;20035;-75
2022/11/24 02:56:25;;;;;;;38.88;3.10;;;;;;;;;;4991178;28;20034;-75
2022/11/24 02:58:51;;;;;;;31.90;2.75;;;;;;;;;;4984943;28;20022;-76
2022/11/24 03:01:16;;;;;;;28.65;2.55;;;;;;;;;;4984916;28;20038;-76
2022/11/24 03:03:41;;;;;;;22.77;2.70;;;;;;;;;;4988384;28;20121;-76
2022/11/24 03:06:07;;;;;;;32.10;3.15;;;;;;;;;;4979682;28;20034;-75
2022/11/24 03:08:32;;;;;;;26.67;2.50;;;;;;;;;;4983855;28;20030;-75
2022/11/24 03:10:57;;;;;;;24.02;2.25;;;;;;;;;;4977421;28;20383;-75
2022/11/24 03:13:23;;;;;;;31.58;2.85;;;;;;;;;;4988217;28;20030;-75
2022/11/24 03:15:48;;;;;;;23.95;2.20;;;;;;;;;;4980931;28;20042;-75
2022/11/24 03:18:13;;;;;;;31.98;2.28;;;;;;;;;;4980688;28;20049;-76
2022/11/24 03:20:39;;;;;;;27.08;2.45;;;;;;;;;;4989864;28;20129;-75
2022/11/24 03:23:04;;;;;;;36.05;2.90;;;;;;;;;;4978867;28;20042;-75
2022/11/24 03:25:30;;;;;;;17.10;2.08;;;;;;;;;;4983124;28;20034;-76
2022/11/24 03:27:58;;;;;;;25.77;2.40;;;;;;;;;;4982280;28;20038;-76
2022/11/24 03:30:24;;;;;;;29.30;3.05;;;;;;;;;;4978139;28;20046;-75
2022/11/24 03:32:52;;;;;;;26.00;3.33;;;;;;;;;;4985426;28;20092;-76
2022/11/24 03:35:19;;;;;;;26.13;2.63;;;;;;;;;;4985760;28;20046;-76
2022/11/24 03:37:44;;;;;;;34.25;3.33;;;;;;;;;;4992730;28;20367;-76
2022/11/24 03:40:10;;;;;;;28.23;2.92;;;;;;;;;;4978338;28;20042;-76
2022/11/24 03:42:35;;;;;;;33.35;3.45;;;;;;;;;;4987979;28;20096;-75
2022/11/24 03:45:01;;;;;;;29.15;2.22;;;;;;;;;;4981529;28;20073;-76
2022/11/24 03:47:26;;;;;;;38.47;2.92;;;;;;;;;;4989803;28;20050;-75
2022/11/24 03:49:51;;;;;;;38.28;3.60;;;;;;;;;;4981821;28;20439;-75
2022/11/24 03:52:17;;;;;;;36.88;2.90;;;;;;;;;;4988800;28;20042;-75
2022/11/24 03:54:42;;;;;;;35.65;3.17;;;;;;;;;;4987774;28;20034;-75
2022/11/24 03:57:07;;;;;;;33.78;3.65;;;;;;;;;;4985487;28;20498;-76
2022/11/24 03:59:33;;;;;;;44.80;3.47;;;;;;;;;;4985248;28;20034;-76
2022/11/24 04:01:58;;;;;;;44.67;3.40;;;;;;;;;;4980316;28;20471;-77
2022/11/24 04:04:24;;;;;;;21.95;2.72;;;;;;;;;;4984599;28;20030;-75
2022/11/24 04:06:49;;;;;;;51.22;3.40;;;;;;;;;;4990449;28;20038;-76
2022/11/24 04:09:14;;;;;;;40.25;2.67;;;;;;;;;;4983629;28;20027;-75
2022/11/24 04:14:25;;;;;;;49.42;3.55;;;;;;;;;;4954203;28;20043;-75
2022/11/24 04:16:51;;;;;;;24.77;3.22;;;;;;;;;;4984591;28;20042;-75
2022/11/24 04:19:16;;;;;;;43.63;3.10;;;;;;;;;;4980550;28;20436;-76
2022/11/24 04:21:42;;;;;;;28.20;2.72;;;;;;;;;;4977702;28;20041;-76
2022/11/24 04:24:07;;;;;;;47.63;3.25;;;;;;;;;;4987955;28;20038;-76
2022/11/24 04:26:32;;;;;;;35.78;3.65;;;;;;;;;;4984631;28;20402;-78
2022/11/24 04:28:58;;;;;;;43.92;3.35;;;;;;;;;;4981764;28;20230;-76
2022/11/24 04:31:23;;;;;;;37.05;3.70;;;;;;;;;;4984489;28;20122;-76
2022/11/24 04:33:48;;;;;;;45.17;3.45;;;;;;;;;;4978855;28;20039;-76
2022/11/24 04:36:14;;;;;;;34.35;3.35;;;;;;;;;;4985101;28;20069;-76
2022/11/24 04:38:39;;;;;;;43.95;3.78;;;;;;;;;;4989932;28;20027;-76
2022/11/24 04:41:05;;;;;;;44.70;3.30;;;;;;;;;;4982079;28;20459;-75
2022/11/24 04:43:31;;;;;;;31.80;3.47;;;;;;;;;;4989645;28;20022;-76
2022/11/24 04:45:59;;;;;;;32.97;2.78;;;;;;;;;;4991682;28;20455;-76
2022/11/24 04:48:24;;;;;;;23.50;3.28;;;;;;;;;;4980532;28;20390;-75
2022/11/24 04:50:50;;;;;;;32.15;3.28;;;;;;;;;;4986588;28;20035;-75
2022/11/24 04:53:15;;;;;;;39.75;3.80;;;;;;;;;;4987198;28;20031;-75
2022/11/24 04:55:40;;;;;;;43.05;3.75;;;;;;;;;;4987314;28;20471;-76
2022/11/24 04:58:07;;;;;;;36.65;3.22;;;;;;;;;;4982083;28;20027;-76
2022/11/24 05:00:33;;;;;;;31.33;2.83;;;;;;;;;;4979005;28;20038;-77
2022/11/24 05:02:58;;;;;;;43.90;4.22;;;;;;;;;;4982420;28;20042;-75
2022/11/24 05:05:24;;;;;;;28.00;3.67;;;;;;;;;;4983290;28;20042;-76
2022/11/24 05:07:49;;;;;;;31.10;3.28;;;;;;;;;;4986538;28;20023;-76
2022/11/24 05:12:59;;;;;;;;;;;;;;;;;;4971467;28;20097;-75
2022/11/24 05:15:24;;;;;;;33.90;3.92;;;;;;;;;;4988819;28;20310;-75
2022/11/24 05:17:50;;;;;;;34.10;4.07;;;;;;;;;;4984010;28;20033;-76
2022/11/24 05:20:16;;;;;;;38.95;4.88;;;;;;;;;;4993231;28;20114;-75
2022/11/24 05:22:42;;;;;;;27.27;3.70;;;;;;;;;;4986751;28;20039;-75
2022/11/24 05:25:08;;;;;;;35.45;3.53;;;;;;;;;;4990283;28;20030;-76
2022/11/24 05:27:33;;;;;;;39.17;4.32;;;;;;;;;;4985525;28;20109;-76
2022/11/24 05:29:59;;;;;;;43.58;4.10;;;;;;;;;;4993342;28;20122;-75
2022/11/24 05:32:24;;;;;;;44.25;4.18;;;;;;;;;;4989309;28;20425;-75
2022/11/24 05:34:50;;;;;;;43.58;3.92;;;;;;;;;;4995031;28;20060;-75
2022/11/24 05:37:16;;;;;;;36.15;2.88;;;;;;;;;;4994722;28;20038;-76
2022/11/24 05:39:41;;;;;;;28.33;2.67;;;;;;;;;;4981780;28;20030;-76
2022/11/24 05:44:52;;;;;;;35.00;3.28;;;;;;;;;;4971807;28;20062;-76
2022/11/24 05:47:18;;;;;;;34.38;3.38;;;;;;;;;;4990169;28;20050;-76
2022/11/24 05:49:43;;;;;;;26.52;3.05;;;;;;;;;;4985576;28;20054;-75
2022/11/24 05:52:09;;;;;;;33.10;4.05;;;;;;;;;;4989833;28;20161;-76
2022/11/24 05:54:34;;;;;;;35.40;4.20;;;;;;;;;;4986484;28;20038;-75
2022/11/24 05:57:00;;;;;;;36.05;3.35;;;;;;;;;;4989044;28;20042;-77
2022/11/24 05:59:25;;;;;;;39.45;3.03;;;;;;;;;;4987031;28;20111;-76
2022/11/24 06:01:50;;;;;;;31.20;3.22;;;;;;;;;;4988786;28;20022;-77
2022/11/24 06:04:16;;;;;;;39.03;3.58;;;;;;;;;;4988026;28;20042;-76
2022/11/24 06:06:41;;;;;;;32.38;3.00;;;;;;;;;;4993153;28;20030;-76
2022/11/24 06:09:06;;;;;;;29.85;2.97;;;;;;;;;;4992442;28;20101;-76
2022/11/24 06:11:32;;;;;;;42.75;3.03;;;;;;;;;;4978785;28;20046;-76
2022/11/24 06:13:57;;;;;;;25.00;2.88;;;;;;;;;;4988130;28;20030;-76
2022/11/24 06:16:22;;;;;;;31.13;2.75;;;;;;;;;;4994152;28;20129;-76
2022/11/24 06:18:48;;;;;;;38.67;4.03;;;;;;;;;;4983146;28;20035;-76
2022/11/24 06:21:13;;;;;;;34.92;3.67;;;;;;;;;;4979253;28;20043;-76
2022/11/24 06:23:39;;;;;;;30.77;3.55;;;;;;;;;;4988566;28;20085;-77
2022/11/24 06:26:05;;;;;;;17.15;2.58;;;;;;;;;;4984794;28;20474;-76
2022/11/24 06:28:31;;;;;;;33.42;3.15;;;;;;;;;;4994565;28;20066;-76
2022/11/24 06:31:01;;;;;;;38.05;3.78;;;;;;;;;;4987921;28;20042;-75
2022/11/24 06:33:30;;;;;;;30.75;3.22;;;;;;;;;;4981967;28;20039;-76
2022/11/24 06:36:00;;;;;;;42.40;2.55;;;;;;;;;;4991981;28;20022;-75
2022/11/24 06:38:25;;;;;;;30.05;2.80;;;;;;;;;;4981657;28;20034;-75
2022/11/24 06:40:58;;;;;;;38.58;3.75;;;;;;;;;;4990726;28;20039;-76
2022/11/24 06:43:25;;;;;;;24.80;2.80;;;;;;;;;;4984922;28;20042;-76
2022/11/24 06:45:51;;;;;;;45.50;3.53;;;;;;;;;;4986371;28;20062;-75
2022/11/24 06:48:16;;;;;;;23.95;2.80;;;;;;;;;;4987259;28;20038;-76
2022/11/24 06:50:42;;;;;;;43.83;3.72;;;;;;;;;;4986691;28;20114;-76
2022/11/24 06:53:07;;;;;;;36.90;2.85;;;;;;;;;;4988049;28;20038;-76
2022/11/24 06:55:33;;;;;;;34.47;2.95;;;;;;;;;;4985033;28;20130;-75
2022/11/24 06:57:58;;;;;;;31.65;2.90;;;;;;;;;;4989689;28;20044;-75
2022/11/24 07:00:23;;;;;;;29.98;2.60;;;;;;;;;;4989229;28;20035;-76
2022/11/24 07:02:49;;;;;;;24.90;3.75;;;;;;;;;;4983955;28;20101;-75
2022/11/24 07:05:14;;;;;;;36.55;3.45;;;;;;;;;;4976455;28;20085;-75
2022/11/24 07:07:40;;;;;;;43.38;3.65;;;;;;;;;;4980358;28;20045;-76
2022/11/24 07:10:06;;;;;;;28.10;3.15;;;;;;;;;;4988856;28;20035;-75
2022/11/24 07:12:34;;;;;;;38.72;3.47;;;;;;;;;;4983125;28;20046;-75
2022/11/24 07:14:59;;;;;;;28.60;3.15;;;;;;;;;;4977326;28;20089;-76
2022/11/24 07:17:25;;;;;;;40.75;3.25;;;;;;;;;;4978064;28;20479;-76
2022/11/24 07:19:50;;;;;;;37.20;3.58;;;;;;;;;;4983068;28;20507;-76
2022/11/24 07:22:15;;;;;;;30.35;3.28;;;;;;;;;;4970379;28;20047;-75
2022/11/24 07:24:41;;;;;;;26.55;3.10;;;;;;;;;;4955749;28;20046;-76
2022/11/24 07:27:06;;;;;;;40.08;3.10;;;;;;;;;;4959841;28;20060;-76
2022/11/24 07:29:31;;;;;;;35.90;2.90;;;;;;;;;;4959544;28;20487;-75
2022/11/24 07:31:57;;;;;;;38.42;3.13;;;;;;;;;;4955979;28;20073;-76
2022/11/24 07:34:22;;;;;;;26.33;2.70;;;;;;;;;;4955515;28;20043;-75
2022/11/24 07:36:48;;;;;;;39.58;3.83;;;;;;;;;;4955694;28;20044;-75
2022/11/24 07:39:14;;;;;;;31.33;2.70;;;;;;;;;;4957106;28;20475;-77
2022/11/24 07:41:39;;;;;;;33.10;3.35;;;;;;;;;;4961256;28;20071;-76
2022/11/24 07:44:05;;;;;;;38.03;3.08;;;;;;;;;;4963474;28;20042;-76
2022/11/24 07:46:30;;;;;;;26.58;2.90;;;;;;;;;;4955181;28;20055;-76
2022/11/24 07:48:56;;;;;;;32.28;3.30;;;;;;;;;;4955196;28;20035;-76
2022/11/24 07:51:21;;;;;;;40.45;3.47;;;;;;;;;;4954193;29;20046;-76
2022/11/24 07:53:47;;;;;;;28.35;2.50;;;;;;;;;;4955200;28;20575;-76
2022/11/24 07:56:12;;;;;;;29.65;3.13;;;;;;;;;;4960328;28;20043;-75
2022/11/24 07:58:37;;;;;;;31.25;3.17;;;;;;;;;;4956878;28;20114;-76
2022/11/24 08:01:11;;;;;;;38.60;3.58;;;;;;;;;;4961321;28;20031;-77
2022/11/24 08:03:36;;;;;;;35.85;3.70;;;;;;;;;;4981013;28;20043;-75
2022/11/24 08:06:02;;;;;;;37.00;4.32;;;;;;;;;;4979656;28;20506;-76
2022/11/24 08:08:32;;;;;;;28.42;4.65;;;;;;;;;;4988197;28;20030;-75
2022/11/24 08:10:57;;;;;;;37.80;5.00;;;;;;;;;;4969067;28;20035;-76
2022/11/24 08:13:22;;;;;;;30.63;4.05;;;;;;;;;;4982534;28;20484;-76
2022/11/24 08:15:48;;;;;;;25.20;4.07;;;;;;;;;;4978771;28;20445;-75
2022/11/24 08:18:13;;;;;;;26.27;3.83;;;;;;;;;;4990565;28;20041;-76
2022/11/24 08:20:38;;;;;;;33.85;3.22;;;;;;;;;;4985021;28;20495;-76
2022/11/24 08:23:04;;;;;;;34.15;4.05;;;;;;;;;;4990807;28;20033;-76
2022/11/24 08:25:31;;;;;;;50.97;15.63;;;;;;;;;;4980631;28;20042;-76
2022/11/24 08:28:01;;;;;;;48.33;11.32;;;;;;;;;;4981885;28;20051;-75
2022/11/24 08:30:26;;;;;;;56.63;12.48;;;;;;;;;;4975162;28;20146;-76
2022/11/24 08:32:52;;;;;;;41.28;9.38;;;;;;;;;;4985387;28;20058;-76
2022/11/24 08:35:18;;;;;;;42.72;4.63;;;;;;;;;;4979191;28;20092;-76
2022/11/24 08:37:43;;;;;;;40.25;3.35;;;;;;;;;;4976209;28;20034;-76
2022/11/24 08:40:09;;;;;;;38.42;3.90;;;;;;;;;;4965802;28;20062;-76
2022/11/24 08:42:34;;;;;;;38.70;4.45;;;;;;;;;;4963778;28;20042;-76
2022/11/24 08:45:00;;;;;;;46.30;5.88;;;;;;;;;;4977156;28;20042;-76
2022/11/24 08:47:25;;;;;;;61.92;17.35;;;;;;;;;;4974394;28;20959;-77
2022/11/24 08:49:51;;;;;;;64.82;17.55;;;;;;;;;;4980242;28;20034;-76
2022/11/24 08:52:16;;;;;;;42.60;10.85;;;;;;;;;;4976238;28;20046;-76
2022/11/24 08:54:43;;;;;;;34.47;7.00;;;;;;;;;;4973921;28;20042;-75
2022/11/24 08:57:09;;;;;;;52.83;6.32;;;;;;;;;;4976043;28;20092;-75
2022/11/24 08:59:35;;;;;;;41.33;7.20;;;;;;;;;;4976926;28;20466;-75
2022/11/24 09:02:00;;;;;;;46.55;6.45;;;;;;;;;;4975779;28;20043;-79
2022/11/24 09:04:26;;;;;;;50.25;5.45;;;;;;;;;;4979987;28;20112;-75
2022/11/24 09:06:51;;;;;;;47.28;4.53;;;;;;;;;;4977244;28;20473;-75
2022/11/24 09:09:16;;;;;;;34.42;4.22;;;;;;;;;;4977992;28;20038;-75
2022/11/24 09:11:42;;;;;;;39.03;4.22;;;;;;;;;;4974473;28;20461;-76
2022/11/24 09:14:07;;;;;;;34.30;3.53;;;;;;;;;;4971723;28;20045;-76
2022/11/24 09:16:33;;;;;;;35.08;2.85;;;;;;;;;;4979091;28;20049;-75
2022/11/24 09:19:00;;;;;;;44.03;4.25;;;;;;;;;;4977597;28;20043;-76
2022/11/24 09:21:26;;;;;;;37.33;3.40;;;;;;;;;;4974408;28;20069;-75
2022/11/24 09:23:52;;;;;;;47.88;4.50;;;;;;;;;;4977964;28;20039;-76
2022/11/24 09:26:26;;;;;;;43.35;3.88;;;;;;;;;;4977477;28;20391;-76
2022/11/24 09:28:53;;;;;;;38.53;4.03;;;;;;;;;;4984826;28;20034;-76
2022/11/24 09:31:20;;;;;;;42.90;4.07;;;;;;;;;;4982371;28;20042;-76
2022/11/24 09:33:45;;;;;;;39.00;4.38;;;;;;;;;;4987076;28;20088;-76
2022/11/24 09:36:11;;;;;;;49.75;4.82;;;;;;;;;;4985749;28;20034;-76
2022/11/24 09:38:37;;;;;;;53.40;4.30;;;;;;;;;;4982234;28;20534;-76
2022/11/24 09:41:26;;;;;;;48.55;4.57;;;;;;;;;;4984722;28;20084;-76
2022/11/24 09:44:04;;;;;;;39.22;3.55;;;;;;;;;;4985429;28;20042;-75
2022/11/24 09:46:29;;;;;;;40.08;4.05;;;;;;;;;;4982146;28;20053;-75
2022/11/24 09:48:56;;;;;;;48.45;5.40;;;;;;;;;;4981889;28;20042;-75
2022/11/24 09:51:27;;;;;;;48.00;5.15;;;;;;;;;;4980452;28;20125;-75
2022/11/24 09:53:58;;;;;;;39.92;3.58;;;;;;;;;;4979360;28;20034;-75
2022/11/24 09:56:26;;;;;;;36.97;4.72;;;;;;;;;;4979802;28;20042;-75
2022/11/24 09:59:00;;;;;;;44.03;5.10;;;;;;;;;;4980923;28;20027;-75
2022/11/24 10:01:29;;;;;;;37.65;4.78;;;;;;;;;;4982347;28;20058;-75
2022/11/24 10:03:55;;;;;;;46.33;4.57;;;;;;;;;;4984359;28;20065;-75
2022/11/24 10:06:29;;;;;;;38.33;4.97;;;;;;;;;;4975223;28;20046;-76
2022/11/24 10:09:03;;;;;;;51.80;3.78;;;;;;;;;;4981578;28;20053;-76
2022/11/24 10:12:04;;;;;;;46.05;4.03;;;;;;;;;;4987618;28;20081;-76
2022/11/24 10:15:12;;;;;;;43.15;4.93;;;;;;;;;;4979222;28;20117;-76
2022/11/24 10:17:59;;;;;;;49.60;4.78;;;;;;;;;;4977729;28;20050;-76
2022/11/24 10:20:32;;;;;;;46.88;3.90;;;;;;;;;;4967556;28;20372;-76
2022/11/24 10:23:26;;;;;;;44.88;4.30;;;;;;;;;;4977514;28;20065;-75
2022/11/24 10:25:57;;;;;;;38.08;4.55;;;;;;;;;;4975986;28;20035;-75
2022/11/24 10:28:28;;;;;;;35.60;4.50;;;;;;;;;;4976097;28;20035;-76
2022/11/24 10:31:22;;;;;;;24.50;2.72;;;;;;;;;;4986132;28;20533;-75
2022/11/24 10:33:47;;;;;;;38.53;4.18;;;;;;;;;;4984956;28;20055;-75
2022/11/24 10:36:30;;;;;;;25.00;3.38;;;;;;;;;;4982098;28;20054;-77
2022/11/24 10:39:02;;;;;;;19.25;3.58;;;;;;;;;;4990211;28;20038;-75
2022/11/24 10:41:39;;;;;;;26.73;4.40;;;;;;;;;;4987168;28;20042;-75
2022/11/24 10:44:11;;;;;;;28.83;2.95;;;;;;;;;;4979778;28;20633;-76
2022/11/24 10:46:36;;;;;;;28.45;3.72;;;;;;;;;;4973734;28;20576;-75
2022/11/24 10:49:04;;;;;;;14.68;2.47;;;;;;;;;;4982739;28;20038;-75
2022/11/24 10:51:29;;;;;;;26.00;3.50;;;;;;;;;;4978681;28;20030;-75
2022/11/24 10:53:58;;;;;;;22.08;3.30;;;;;;;;;;4987397;28;20568;-75
2022/11/24 10:56:24;;;;;;;37.13;4.30;;;;;;;;;;4981259;28;20113;-76
2022/11/24 10:58:49;;;;;;;16.20;3.47;;;;;;;;;;4982336;28;20127;-76
2022/11/24 11:01:31;;;;;;;24.63;3.10;;;;;;;;;;4988987;28;20042;-75
2022/11/24 11:03:58;;;;;;;11.93;1.92;;;;;;;;;;4973243;28;20027;-78
2022/11/24 11:06:28;;;;;;;25.02;3.65;;;;;;;;;;4980079;28;20039;-76
2022/11/24 11:09:06;;;;;;;22.42;3.47;;;;;;;;;;4975025;28;20055;-76
2022/11/24 11:11:32;;;;;;;21.95;3.05;;;;;;;;;;4970059;28;20039;-75
2022/11/24 11:14:03;;;;;;;21.08;3.50;;;;;;;;;;4972545;28;20035;-75
2022/11/24 11:16:49;;;;;;;23.77;4.50;;;;;;;;;;4975000;28;20049;-75
2022/11/24 11:19:36;;;;;;;20.90;2.85;;;;;;;;;;4969955;28;20043;-76
2022/11/24 11:22:10;;;;;;;25.73;3.03;;;;;;;;;;4972412;28;20125;-76
2022/11/24 11:24:41;;;;;;;19.85;3.33;;;;;;;;;;4971005;28;20089;-76
2022/11/24 11:27:21;;;;;;;19.52;3.45;;;;;;;;;;4970269;28;20045;-77
2022/11/24 11:29:47;;;;;;;20.92;2.72;;;;;;;;;;4966904;28;20499;-75
2022/11/24 11:32:20;;;;;;;23.15;3.03;;;;;;;;;;4962603;28;20037;-76
2022/11/24 11:34:46;;;;;;;24.05;3.95;;;;;;;;;;4970960;28;20114;-75
2022/11/24 11:37:13;;;;;;;22.80;3.80;;;;;;;;;;4971775;28;20134;-76
2022/11/24 11:39:40;;;;;;;37.15;3.60;;;;;;;;;;4973931;28;20105;-76
2022/11/24 11:42:21;;;;;;;19.38;2.58;;;;;;;;;;4969948;28;20054;-76
2022/11/24 11:45:04;;;;;;;24.38;2.88;;;;;;;;;;4968333;28;20494;-76
2022/11/24 11:47:35;;;;;;;15.02;2.90;;;;;;;;;;4970731;28;20192;-75
2022/11/24 11:50:01;;;;;;;31.50;3.15;;;;;;;;;;4969824;28;20042;-76
2022/11/24 11:52:41;;;;;;;19.10;3.05;;;;;;;;;;4969663;28;20489;-76
2022/11/24 11:55:15;;;;;;;15.00;3.05;;;;;;;;;;4975146;28;20047;-76
2022/11/24 11:58:06;;;;;;;14.55;2.80;;;;;;;;;;4975079;28;20494;-77
2022/11/24 12:00:34;;;;;;;20.00;2.53;;;;;;;;;;4964550;28;20121;-78
2022/11/24 12:03:18;;;;;;;15.55;3.72;;;;;;;;;;4970530;28;20038;-76
2022/11/24 12:06:14;;;;;;;26.52;3.50;;;;;;;;;;4969564;28;21051;-75
2022/11/24 12:09:03;;;;;;;18.95;3.03;;;;;;;;;;4959206;28;20130;-75
2022/11/24 12:11:36;;;;;;;22.30;4.07;;;;;;;;;;4956665;28;20113;-76
2022/11/24 12:14:32;;;;;;;20.42;3.22;;;;;;;;;;4970545;28;20053;-76
2022/11/24 12:17:33;;;;;;;17.63;3.38;;;;;;;;;;4978446;28;20513;-75
2022/11/24 12:20:21;;;;;;;15.95;3.10;;;;;;;;;;4973242;28;20058;-75
2022/11/24 12:22:58;;;;;;;22.13;3.47;;;;;;;;;;4976302;28;20045;-76
2022/11/24 12:25:52;;;;;;;22.00;3.33;;;;;;;;;;4969899;28;20402;-75
2022/11/24 12:28:40;;;;;;;20.45;3.17;;;;;;;;;;4918464;28;20432;-76
2022/11/24 12:31:07;;;;;;;26.77;3.30;;;;;;;;;;4991438;28;20117;-76
2022/11/24 12:33:41;;;;;;;20.38;2.92;;;;;;;;;;4970775;28;20034;-76
2022/11/24 12:36:36;;;;;;;23.38;2.85;;;;;;;;;;4987024;28;20053;-77
2022/11/24 12:39:13;;;;;;;28.77;2.75;;;;;;;;;;4979158;28;20045;-76
2022/11/24 12:41:53;;;;;;;37.28;3.08;;;;;;;;;;4982512;28;20031;-75
2022/11/24 12:44:40;;;;;;;28.23;3.15;;;;;;;;;;4981638;28;20117;-76
2022/11/24 12:47:40;;;;;;;33.78;3.63;;;;;;;;;;4978331;28;20478;-76
2022/11/24 12:50:13;;;;;;;19.02;3.28;;;;;;;;;;4982147;28;20038;-76
2022/11/24 12:52:49;;;;;;;30.25;2.30;;;;;;;;;;4982581;28;20410;-75
2022/11/24 12:55:18;;;;;;;24.92;2.67;;;;;;;;;;4988554;28;20039;-76
2022/11/24 12:57:56;;;;;;;16.27;3.13;;;;;;;;;;4990693;28;20031;-76
2022/11/24 13:00:28;;;;;;;15.98;1.80;;;;;;;;;;4980064;28;20428;-76
2022/11/24 13:03:12;;;;;;;18.15;3.55;;;;;;;;;;4987600;28;20042;-76
2022/11/24 13:06:00;;;;;;;28.50;2.85;;;;;;;;;;4980563;28;20041;-76
2022/11/24 13:08:26;;;;;;;23.10;3.05;;;;;;;;;;5023794;28;20030;-76
2022/11/24 13:10:52;;;;;;;21.35;3.05;;;;;;;;;;4993519;28;20049;-77
2022/11/24 13:13:18;;;;;;;24.88;3.65;;;;;;;;;;4984697;28;20651;-76
2022/11/24 13:15:53;;;;;;;22.30;2.80;;;;;;;;;;4978495;28;20510;-76
2022/11/24 13:18:52;;;;;;;22.77;4.22;;;;;;;;;;4987239;28;20113;-76
2022/11/24 13:21:29;;;;;;;26.33;2.85;;;;;;;;;;4984866;28;20041;-76
2022/11/24 13:24:00;;;;;;;23.17;4.05;;;;;;;;;;4973102;28;20038;-76
2022/11/24 13:26:41;;;;;;;17.10;2.25;;;;;;;;;;4981189;28;20466;-75
2022/11/24 13:29:31;;;;;;;22.77;2.97;;;;;;;;;;4973616;28;20109;-76
2022/11/24 13:32:05;;;;;;;22.42;3.33;;;;;;;;;;4974814;28;20445;-76
2022/11/24 13:34:44;;;;;;;16.45;2.60;;;;;;;;;;4982971;28;20042;-75
2022/11/24 13:37:21;;;;;;;16.08;2.72;;;;;;;;;;4991814;28;20453;-76
2022/11/24 13:39:49;;;;;;;9.48;1.58;;;;;;;;;;4990413;28;20039;-78
2022/11/24 13:42:16;;;;;;;14.25;2.40;;;;;;;;;;4986202;28;20058;-76
2022/11/24 13:44:55;;;;;;;11.38;1.85;;;;;;;;;;4988518;28;20494;-76
2022/11/24 13:47:31;;;;;;;8.25;1.98;;;;;;;;;;4984823;28;20054;-76
2022/11/24 13:49:56;;;;;;;13.35;2.47;;;;;;;;;;4985445;28;20114;-76
2022/11/24 13:52:36;;;;;;;14.55;1.98;;;;;;;;;;4984148;28;20138;-75
2022/11/24 13:55:26;;;;;;;24.33;2.97;;;;;;;;;;4977259;28;20483;-76
2022/11/24 13:58:33;;;;;;;20.42;4.40;;;;;;;;;;4977973;28;20070;-75
2022/11/24 14:01:07;;;;;;;15.02;3.35;;;;;;;;;;4982456;28;20046;-76
2022/11/24 14:04:02;;;;;;;24.35;4.68;;;;;;;;;;4987510;28;20085;-76
2022/11/24 14:06:33;;;;;;;;;;;;;;;;;;4977959;28;20152;-77
2022/11/24 14:09:00;;;;;;;24.05;3.90;;;;;;;;;;4989046;28;20293;-76
2022/11/24 14:11:27;;;;;;;28.90;6.75;;;;;;;;;;4989007;28;20110;-77
2022/11/24 14:13:52;;;;;;;31.85;5.15;;;;;;;;;;4984365;28;20398;-76
2022/11/24 14:16:22;;;;;;;22.80;3.70;;;;;;;;;;4982106;28;20038;-78
2022/11/24 14:18:49;;;;;;;23.95;4.22;;;;;;;;;;4977560;28;20054;-77
2022/11/24 14:21:32;;;;;;;19.38;3.10;;;;;;;;;;4982484;28;20125;-76
2022/11/24 14:24:11;;;;;;;21.20;4.05;;;;;;;;;;5006195;28;20465;-76
2022/11/24 14:26:38;;;;;;;16.50;2.20;;;;;;;;;;4982929;28;20065;-76
2022/11/24 14:29:03;;;;;;;29.80;2.78;;;;;;;;;;4980095;28;20045;-77
2022/11/24 14:31:29;;;;;;;26.70;2.90;;;;;;;;;;4980679;28;20046;-77
2022/11/24 14:34:16;;;;;;;17.15;2.38;;;;;;;;;;4989301;28;20117;-76
2022/11/24 14:36:42;;;;;;;18.33;2.67;;;;;;;;;;4986508;28;20092;-77
2022/11/24 14:39:15;;;;;;;18.05;2.75;;;;;;;;;;4990924;28;20034;-78
2022/11/24 14:41:42;;;;;;;;;;;;;;;;;;4989413;28;20504;-76
2022/11/24 14:44:23;;;;;;;17.48;2.78;;;;;;;;;;5021074;28;20381;-77
2022/11/24 14:46:49;;;;;;;22.77;3.45;;;;;;;;;;4984218;28;20050;-76
2022/11/24 14:49:17;;;;;;;17.17;2.58;;;;;;;;;;4980784;28;20038;-76
2022/11/24 14:51:44;;;;;;;12.00;2.70;;;;;;;;;;4987504;28;20490;-76
2022/11/24 14:54:17;;;;;;;14.45;2.97;;;;;;;;;;4975842;28;20057;-76